sensor_id;sensor_type;location;lat;lon;timestamp;P1;durP1;ratioP1;P2;durP2;ratioP2
27722;SDS011;15123;-37.794;175.246;2022-12-18T00:00:54;4.72;;;0.98;;
27722;SDS011;15123;-37.794;175.246;2022-12-18T00:03:25;2.17;;;0.60;;
27722;SDS011;15123;-37.794;175.246;2022-12-18T00:05:57;2.03;;;0.55;;
27722;SDS011;15123;-37.794;175.246;2022-12-18T00:08:28;2.70;;;0.65;;
27722;SDS011;15123;-37.794;175.246;2022-12-18T00:11:05;3.65;;;0.60;;
27722;SDS011;15123;-37.794;175.246;2022-12-18T00:13:37;2.63;;;0.52;;
27722;SDS011;15123;-37.794;175.246;2022-12-18T00:16:13;2.15;;;0.57;;
27722;SDS011;15123;-37.794;175.246;2022-12-18T00:18:46;1.75;;;0.60;;
27722;SDS011;15123;-37.794;175.246;2022-12-18T00:21:18;2.85;;;0.60;;
27722;SDS011;15123;-37.794;175.246;2022-12-18T00:23:49;2.92;;;0.60;;
27722;SDS011;15123;-37.794;175.246;2022-12-18T00:26:39;2.72;;;0.70;;
27722;SDS011;15123;-37.794;175.246;2022-12-18T00:29:11;2.65;;;0.60;;
27722;SDS011;15123;-37.794;175.246;2022-12-18T00:31:43;2.67;;;0.77;;
27722;SDS011;15123;-37.794;175.246;2022-12-18T00:34:14;3.17;;;0.75;;
27722;SDS011;15123;-37.794;175.246;2022-12-18T00:36:46;3.33;;;0.70;;
27722;SDS011;15123;-37.794;175.246;2022-12-18T00:39:18;2.90;;;0.70;;
27722;SDS011;15123;-37.794;175.246;2022-12-18T00:41:49;2.67;;;0.73;;
27722;SDS011;15123;-37.794;175.246;2022-12-18T00:44:38;2.58;;;0.55;;
27722;SDS011;15123;-37.794;175.246;2022-12-18T00:47:09;4.82;;;0.70;;
27722;SDS011;15123;-37.794;175.246;2022-12-18T00:49:40;3.70;;;0.82;;
27722;SDS011;15123;-37.794;175.246;2022-12-18T00:52:11;2.88;;;0.70;;
27722;SDS011;15123;-37.794;175.246;2022-12-18T00:54:41;2.15;;;0.60;;
27722;SDS011;15123;-37.794;175.246;2022-12-18T00:57:13;2.92;;;0.75;;
27722;SDS011;15123;-37.794;175.246;2022-12-18T00:59:44;2.70;;;0.60;;
27722;SDS011;15123;-37.794;175.246;2022-12-18T01:02:16;4.05;;;0.70;;
27722;SDS011;15123;-37.794;175.246;2022-12-18T01:07:21;2.63;;;0.68;;
27722;SDS011;15123;-37.794;175.246;2022-12-18T01:09:52;4.55;;;0.90;;
27722;SDS011;15123;-37.794;175.246;2022-12-18T01:12:23;4.15;;;0.93;;
27722;SDS011;15123;-37.794;175.246;2022-12-18T01:14:54;3.60;;;0.90;;
27722;SDS011;15123;-37.794;175.246;2022-12-18T01:17:25;4.78;;;0.88;;
27722;SDS011;15123;-37.794;175.246;2022-12-18T01:19:56;4.32;;;1.00;;
27722;SDS011;15123;-37.794;175.246;2022-12-18T01:22:29;4.30;;;0.93;;
27722;SDS011;15123;-37.794;175.246;2022-12-18T01:27:33;3.85;;;0.80;;
27722;SDS011;15123;-37.794;175.246;2022-12-18T01:30:05;4.45;;;1.02;;
27722;SDS011;15123;-37.794;175.246;2022-12-18T01:32:36;3.90;;;0.90;;
27722;SDS011;15123;-37.794;175.246;2022-12-18T01:35:08;3.28;;;0.80;;
27722;SDS011;15123;-37.794;175.246;2022-12-18T01:40:38;5.38;;;1.05;;
27722;SDS011;15123;-37.794;175.246;2022-12-18T01:43:11;4.63;;;1.00;;
27722;SDS011;15123;-37.794;175.246;2022-12-18T01:45:42;4.32;;;0.90;;
27722;SDS011;15123;-37.794;175.246;2022-12-18T01:50:43;3.78;;;0.90;;
27722;SDS011;15123;-37.794;175.246;2022-12-18T01:53:21;4.50;;;0.95;;
27722;SDS011;15123;-37.794;175.246;2022-12-18T01:55:53;3.70;;;1.00;;
27722;SDS011;15123;-37.794;175.246;2022-12-18T01:58:29;3.45;;;0.90;;
27722;SDS011;15123;-37.794;175.246;2022-12-18T02:01:16;3.88;;;0.85;;
